x

Luke Offshore Test Platform - 64 Nm South Of Dauphin Island, Al (42040) Wave Buoy

6:50pm - Mon 4th May 2015 All times are CDT. -5 hours from GMT.

  • Sig Wave height 5.6ft
  • Swell Direction
  • Peak Period 6s
  • Average Period 5s
  • Wind
    18mph, 22mph gusts
  • Sea Temp 75°f
  • Air Temp 76°f
  • Sea Pressure 1021.3mb
  • Luke Offshore Test Platform - 64 Nm South Of Dauphin Island, Al
  • Luke Offshore Test Platform - 64 Nm South Of Dauphin Island, Al

More Historic Weather Station data

Upgrade to MSW Pro to gain access to the past 30 days of data for over 8000 Wavebouys and Weather Stations around the globe.

Join Pro

Comparision Forecast

View Surf forecast
   
Mon 05/04 6:50pm 5.5ft 6s 5s 18 22 mph 1021.3mb 75f 76f
5:50pm 6ft 6s 5s 22 27 mph 1021.9mb 75f 76f
4:50pm 6ft 6s 5s 25 27 mph 1021.3mb 76f 75f
3:50pm 5.5ft 6s 5s 25 27 mph 1022.1mb 76f 76f
2:50pm 5.5ft 6s 5s 20 25 mph 1022.4mb 76f 76f
1:50pm 5ft 5s 5s 20 25 mph 1022.5mb 76f 75f
12:50pm 5ft 6s 5s 22 25 mph 1022.8mb 75f 75f
11:50am 4.5ft 6s 5s 22 25 mph 1022.4mb 75f 75f
10:50am 4.5ft 5s 5s 20 25 mph 1022.4mb 75f 75f
9:50am 4.5ft 6s 5s 22 25 mph 1022.1mb 75f 75f
8:50am 4.5ft 7s 5s 20 25 mph 1021.6mb 74f 75f
7:50am 4.5ft 7s 5s 20 25 mph 1021mb 74f 74f
6:50am 4.5ft 7s 5s 20 22 mph 1020.3mb 74f 74f
5:50am 4.5ft 7s 5s 20 22 mph 1019.4mb 75f 74f
4:50am 4.5ft 7s 5s 20 22 mph 1019mb 75f 75f
3:50am 4.5ft 6s 5s 16 18 mph 1018.9mb 75f 75f
2:50am 4.5ft 6s 5s 16 18 mph 1019.2mb 75f 75f
1:50am 5ft 6s 5s 20 22 mph 1019.7mb 75f 75f
12:50am 4.5ft 6s 4s 22 25 mph 1019.9mb 75f 75f
Sun 05/03 11:50pm 4.5ft 5s 4s 25 27 mph 1020.2mb 75f 75f
10:50pm 4ft 5s 4s 25 29 mph 1020.4mb 76f 75f
9:50pm 3.5ft 5s 4s 22 25 mph 1020mb 75f 74f
8:50pm 3ft 4s 4s 22 27 mph 1019.6mb 76f 73f
7:50pm 1.6ft 3s 3s 20 25 mph 1019.1mb 76f 74f
6:50pm 1.3ft 3s 3s 13 16 mph 1019.2mb 76f 74f
5:50pm 1.3ft 4s 3s 11 16 mph 1019.1mb 76f 74f
4:50pm 1.3ft 4s 4s 11 16 mph 1019.2mb 77f 74f
3:50pm 1.3ft 4s 4s 7 9 mph 1019.4mb 76f 74f
2:50pm 1.3ft 4s 3s 9 11 mph 1020mb 76f 74f
1:50pm 1.3ft 5s 3s 11 16 mph 1020.5mb 76f 73f
12:50pm 1.3ft 3s 3s 11 13 mph 1020.8mb 76f 73f
11:50am 1ft 4s 3s 11 13 mph 1021.2mb 75f 73f
10:50am 1ft 4s 3s 9 11 mph 1021.2mb 74f 73f
9:50am 0.7ft  -  4s 11 13 mph 1021mb 73f 73f
8:50am 0.7ft  -  4s 7 9 mph 1020.5mb 74f 73f
7:50am 0.7ft  -  4s 7 9 mph 1019.9mb 74f 73f
6:50am 0.7ft  -  4s 7 11 mph 1019.2mb 74f 72f
5:50am 0.7ft  -  4s 4 7 mph 1018.7mb 74f 72f
4:50am 0.7ft  -  4s 4
mph
1018.4mb 74f 72f
3:50am 1ft 4s 4s 7
mph
1018.2mb 74f 72f
2:50am 1ft 5s 4s 7 9 mph 1018.2mb 74f 72f
1:50am 1ft 4s 4s  -  2 mph 1018.5mb 74f 72f
12:50am 1ft 4s 4s 2
mph
1019.1mb 74f 72f
Sat 05/02 11:50pm 1ft 4s 4s 2
mph
1019.4mb 75f 72f
10:50pm 1ft 4s 4s  -  2 mph 1019.3mb 75f 72f
9:50pm 1ft 4s 4s 2 4 mph 1019mb 76f 72f
8:50pm 1ft 4s 4s 4
mph
1018.7mb 76f 73f
7:50pm 1ft 5s 4s 2 7 mph 1018.2mb 76f 72f
6:50pm 1.3ft 5s 4s 4
mph
1017.9mb 77f 73f
5:50pm 1.3ft 5s 4s 4 7 mph 1017.9mb 78f 73f
4:50pm 1.3ft 5s 4s 4 9 mph 1017.9mb 78f 73f
3:50pm 1.3ft 5s 4s 7 9 mph 1018.1mb 79f 73f
2:50pm 1.6ft 5s 4s 7 9 mph 1018.7mb 79f 73f
1:50pm 1.6ft 4s 4s 7 9 mph 1019.3mb 78f 73f
12:50pm 1.6ft 4s 4s 7
mph
1019.7mb 78f 73f
11:50am 2ft 5s 4s 7 9 mph 1020mb 78f 73f
10:50am 2ft 4s 4s 7 9 mph 1019.8mb 77f 73f
9:50am 2.5ft 5s 4s 9
mph
1019.4mb 77f 73f
8:50am 2.5ft 5s 4s 9 11 mph 1019mb 77f 73f
7:50am 2.5ft 5s 4s 9 11 mph 1018.9mb 76f 73f
6:50am 2.5ft 5s 4s 9 13 mph 1018.5mb 76f 72f
5:50am 2ft 5s 4s 11 13 mph 1018.2mb 76f 72f
4:50am 2ft 5s 4s 11 13 mph 1017.7mb 76f 72f
3:50am 1.6ft 4s 4s 13 16 mph 1017.6mb 76f 73f
2:50am 1.3ft 5s 4s 13 18 mph 1017.5mb 77f 73f
1:50am 1.3ft 5s 4s 16 18 mph 1017.9mb 77f 74f
12:50am 1.3ft 5s 4s 13 18 mph 1018.2mb 76f 73f
Fri 05/01 11:50pm 1.3ft 5s 4s 9 11 mph 1018mb 76f 74f
10:50pm 1.3ft 5s 4s 7 9 mph 1017.7mb 76f 73f
9:50pm 1.3ft 5s 4s 7 9 mph 1017.4mb 76f 73f
8:50pm 1.3ft 5s 4s 7 9 mph 1016.5mb 76f 73f
7:50pm 1.3ft 5s 4s 7
mph
1015.8mb 76f 73f
6:50pm 1.6ft 5s 4s 4
mph
1015.2mb 76f 73f
5:50pm 1.6ft 5s 4s 4 7 mph 1015.2mb 77f 72f
4:50pm 1.6ft 4s 4s 4 7 mph 1015.2mb 77f 72f
3:50pm 1.6ft 4s 4s 9 11 mph 1015.8mb 77f 71f
2:50pm 1.6ft 4s 4s 11
mph
1016.3mb 77f 71f
1:50pm 2ft 4s 4s 13
mph
1016.8mb 76f 71f
12:50pm 2ft 4s 4s 13 16 mph 1017mb 76f 71f
11:50am 2.5ft 4s 4s 13 16 mph 1017mb 76f 71f
10:50am 2.5ft 4s 4s 13
mph
1016.7mb 75f 72f
9:50am 3ft 4s 4s 16 18 mph 1016mb 75f 73f
8:50am 3ft 4s 4s 16 18 mph 1015.6mb 75f 72f
7:50am 3.5ft 4s 4s 18 20 mph 1015.3mb 74f 72f
6:50am 3ft 4s 4s 18 22 mph 1014.5mb 74f 72f
5:50am 3ft 4s 4s 20 22 mph 1013.8mb 74f 72f
4:50am 3.5ft 5s 4s 18 20 mph 1013.3mb 74f 72f
3:50am 3ft 4s 4s 20 22 mph 1013.2mb 74f 73f
2:50am 3ft 5s 4s 18 22 mph 1013.2mb 74f 73f
1:50am 3.5ft 5s 4s 20 22 mph 1013.6mb 75f 73f